createdAt,value
2023-06-30T00:00:28.014Z,249.83
2023-06-30T00:01:28.034Z,248.70
2023-06-30T00:02:28.134Z,247.06
2023-06-30T00:03:28.277Z,245.92
2023-06-30T00:04:28.374Z,248.86
2023-06-30T00:05:28.202Z,247.09
2023-06-30T00:06:28.254Z,246.48
2023-06-30T00:07:28.289Z,250.00
2023-06-30T00:08:28.310Z,245.06
2023-06-30T00:09:28.369Z,249.42
2023-06-30T00:10:28.592Z,248.76
2023-06-30T00:11:28.441Z,246.59
2023-06-30T00:12:28.476Z,247.30
2023-06-30T00:13:28.546Z,248.03
2023-06-30T00:14:28.588Z,249.76
2023-06-30T00:15:28.694Z,248.80
2023-06-30T00:16:28.728Z,250.00
2023-06-30T00:17:28.766Z,245.61
2023-06-30T00:18:28.745Z,242.55
2023-06-30T00:19:28.831Z,243.29
2023-06-30T00:20:28.834Z,242.64
2023-06-30T00:21:28.835Z,240.93
2023-06-30T00:22:28.962Z,243.32
2023-06-30T00:23:28.951Z,244.62
2023-06-30T00:24:29.040Z,247.63
2023-06-30T00:25:29.058Z,241.22
2023-06-30T00:26:29.103Z,239.53
2023-06-30T00:27:29.116Z,242.45
2023-06-30T00:28:29.180Z,241.18
2023-06-30T00:29:29.214Z,247.19
2023-06-30T00:30:29.307Z,245.10
2023-06-30T00:31:29.367Z,243.96
2023-06-30T00:32:29.348Z,247.68
2023-06-30T00:33:29.424Z,247.37
2023-06-30T00:34:29.466Z,249.94
2023-06-30T00:35:29.532Z,247.46
2023-06-30T00:36:29.549Z,242.26
2023-06-30T00:37:29.568Z,245.72
2023-06-30T00:38:29.629Z,246.23
2023-06-30T00:39:29.678Z,246.31
2023-06-30T00:40:29.718Z,244.71
2023-06-30T00:41:29.777Z,243.36
2023-06-30T00:42:29.843Z,249.80
2023-06-30T00:43:29.855Z,248.24
2023-06-30T00:44:29.877Z,247.97
2023-06-30T00:45:29.934Z,246.82
2023-06-30T00:46:30.021Z,247.97
2023-06-30T00:47:30.046Z,248.51
2023-06-30T00:48:30.095Z,247.26
2023-06-30T00:49:30.095Z,250.00
2023-06-30T00:50:30.149Z,248.16
2023-06-30T00:51:30.176Z,247.80
2023-06-30T00:52:30.239Z,249.05
2023-06-30T00:53:30.293Z,248.78
2023-06-30T00:54:30.347Z,246.47
2023-06-30T00:55:30.364Z,246.60
2023-06-30T00:56:30.420Z,249.39
2023-06-30T00:57:30.467Z,245.97
2023-06-30T00:58:30.520Z,245.58
2023-06-30T00:59:30.559Z,250.00
2023-06-30T01:00:30.591Z,247.91
2023-06-30T01:01:30.658Z,242.66
2023-06-30T01:02:30.756Z,242.52
2023-06-30T01:03:30.855Z,246.14
2023-06-30T01:04:30.935Z,245.98
2023-06-30T01:05:30.839Z,244.58
2023-06-30T01:06:30.871Z,241.62
2023-06-30T01:07:31.014Z,246.39
2023-06-30T01:08:30.964Z,249.12
2023-06-30T01:09:31.018Z,249.71
2023-06-30T01:10:31.087Z,243.53
2023-06-30T01:11:31.115Z,243.92
2023-06-30T01:12:31.151Z,241.43
2023-06-30T01:13:31.206Z,243.35
2023-06-30T01:14:31.245Z,243.61
2023-06-30T01:15:31.340Z,244.84
2023-06-30T01:16:31.389Z,244.83
2023-06-30T01:17:31.396Z,245.93
2023-06-30T01:18:31.402Z,244.90
2023-06-30T01:19:31.464Z,247.76
2023-06-30T01:20:31.497Z,246.65
2023-06-30T01:21:31.565Z,246.35
2023-06-30T01:22:31.601Z,247.54
2023-06-30T01:23:31.645Z,248.06
2023-06-30T01:24:31.724Z,247.97
2023-06-30T01:25:31.804Z,246.68
2023-06-30T01:26:31.826Z,245.14
2023-06-30T01:27:31.827Z,244.06
2023-06-30T01:28:31.915Z,244.68
2023-06-30T01:29:31.953Z,243.91
2023-06-30T01:30:32.005Z,243.36
2023-06-30T01:31:32.047Z,245.49
2023-06-30T01:32:32.069Z,246.81
2023-06-30T01:33:32.090Z,246.12
2023-06-30T01:34:32.181Z,242.16
2023-06-30T01:35:32.196Z,241.36
2023-06-30T01:36:32.234Z,241.75
2023-06-30T01:37:32.313Z,243.93
2023-06-30T01:38:32.349Z,245.09
2023-06-30T01:39:32.375Z,244.59
2023-06-30T01:40:32.471Z,246.80
2023-06-30T01:41:32.460Z,246.85
2023-06-30T01:42:32.574Z,248.98
2023-06-30T01:43:32.557Z,247.64
2023-06-30T01:44:32.586Z,250.00
2023-06-30T01:45:32.613Z,250.00
2023-06-30T01:46:32.689Z,249.54
2023-06-30T01:47:32.750Z,249.47
2023-06-30T01:48:32.781Z,249.13
2023-06-30T01:49:32.753Z,248.75
2023-06-30T01:50:32.800Z,247.48
2023-06-30T01:51:32.845Z,245.34
2023-06-30T01:52:32.928Z,244.51
2023-06-30T01:53:32.925Z,245.45
2023-06-30T01:54:32.965Z,245.57
2023-06-30T01:55:33.076Z,247.31
2023-06-30T01:56:33.075Z,246.09
2023-06-30T01:57:33.090Z,247.82
2023-06-30T01:58:33.178Z,246.39
2023-06-30T01:59:33.201Z,247.68
2023-06-30T02:00:33.221Z,247.89
2023-06-30T02:01:33.373Z,246.97
2023-06-30T02:02:33.564Z,248.21
2023-06-30T02:03:33.481Z,248.88
2023-06-30T02:04:33.393Z,247.14
2023-06-30T02:05:33.447Z,247.37
2023-06-30T02:06:33.535Z,248.07
2023-06-30T02:07:33.654Z,246.53
2023-06-30T02:08:33.591Z,246.35
2023-06-30T02:09:43.238Z,246.48
2023-06-30T02:10:34.656Z,246.57
2023-06-30T02:11:33.644Z,246.61
2023-06-30T02:12:33.609Z,247.06
2023-06-30T02:13:33.625Z,249.17
2023-06-30T02:14:33.645Z,250.73
2023-06-30T02:15:33.627Z,246.77
2023-06-30T02:16:33.621Z,247.78
2023-06-30T02:17:33.687Z,246.71
2023-06-30T02:18:33.591Z,245.50
2023-06-30T02:19:33.617Z,249.96
2023-06-30T02:20:33.803Z,247.24
2023-06-30T02:21:33.738Z,249.67
2023-06-30T02:22:33.766Z,249.15
2023-06-30T02:23:33.856Z,249.97
2023-06-30T02:24:33.903Z,248.68
2023-06-30T02:25:33.988Z,246.62
2023-06-30T02:26:33.971Z,248.80
2023-06-30T02:27:34.015Z,245.56
2023-06-30T02:28:34.100Z,246.12
2023-06-30T02:29:34.095Z,244.11
2023-06-30T02:30:34.169Z,245.76
2023-06-30T02:31:34.317Z,243.97
2023-06-30T02:32:34.347Z,244.62
2023-06-30T02:33:34.385Z,244.92
2023-06-30T02:34:34.408Z,244.04
2023-06-30T02:35:34.562Z,246.73
2023-06-30T02:36:34.521Z,245.91
2023-06-30T02:37:34.608Z,245.10
2023-06-30T02:38:34.638Z,248.71
2023-06-30T02:39:34.718Z,247.47
2023-06-30T02:40:34.808Z,249.18
2023-06-30T02:41:34.830Z,247.56
2023-06-30T02:42:34.906Z,250.00
2023-06-30T02:43:34.977Z,248.69
2023-06-30T02:44:35.031Z,248.23
2023-06-30T02:45:35.202Z,249.47
2023-06-30T02:46:35.200Z,249.99
2023-06-30T02:47:35.231Z,249.18
2023-06-30T02:48:35.298Z,245.71
2023-06-30T02:49:35.293Z,245.52
2023-06-30T02:50:35.404Z,247.70
2023-06-30T02:51:35.476Z,246.56
2023-06-30T02:52:35.512Z,248.04
2023-06-30T02:53:35.557Z,249.24
2023-06-30T02:54:35.625Z,248.67
2023-06-30T02:55:38.777Z,248.16
2023-06-30T02:56:35.685Z,247.59
2023-06-30T02:57:35.663Z,246.25
2023-06-30T02:58:35.703Z,248.24
2023-06-30T02:59:35.669Z,247.94
2023-06-30T03:00:35.701Z,246.43
2023-06-30T03:01:35.785Z,248.66
2023-06-30T03:02:35.761Z,248.18
2023-06-30T03:03:35.702Z,245.47
2023-06-30T03:04:35.620Z,244.97
2023-06-30T03:05:35.626Z,247.22
2023-06-30T03:06:35.580Z,248.35
2023-06-30T03:07:35.859Z,245.65
2023-06-30T03:08:35.592Z,246.49
2023-06-30T03:09:35.608Z,246.95
2023-06-30T03:10:35.620Z,244.86
2023-06-30T03:11:35.578Z,245.10
2023-06-30T03:12:35.564Z,244.94
2023-06-30T03:13:35.573Z,246.15
2023-06-30T03:14:35.565Z,246.85
2023-06-30T03:15:35.600Z,248.34
2023-06-30T03:16:35.577Z,247.15
2023-06-30T03:17:35.521Z,246.86
2023-06-30T03:18:35.530Z,246.84
2023-06-30T03:19:35.534Z,246.80
2023-06-30T03:20:35.539Z,249.80
2023-06-30T03:21:35.554Z,249.06
2023-06-30T03:22:35.520Z,247.50
2023-06-30T03:23:35.528Z,248.26
2023-06-30T03:24:35.529Z,248.66
2023-06-30T03:25:35.510Z,249.43
2023-06-30T03:26:35.494Z,248.55
2023-06-30T03:27:35.465Z,249.03
2023-06-30T03:28:35.470Z,249.63
2023-06-30T03:29:35.458Z,248.07
2023-06-30T03:30:35.555Z,249.31
2023-06-30T03:31:35.547Z,247.61
2023-06-30T03:32:35.542Z,247.86
2023-06-30T03:33:35.577Z,247.32
2023-06-30T03:34:35.616Z,250.20
2023-06-30T03:35:35.649Z,249.88
2023-06-30T03:36:35.651Z,247.45
2023-06-30T03:37:35.705Z,249.03
2023-06-30T03:38:35.832Z,247.54
2023-06-30T03:39:35.819Z,248.25
2023-06-30T03:40:35.937Z,248.15
2023-06-30T03:41:35.897Z,247.74
2023-06-30T03:42:35.934Z,247.94
2023-06-30T03:43:36.016Z,248.48
2023-06-30T03:44:36.015Z,248.05
2023-06-30T03:45:36.065Z,248.83
2023-06-30T03:46:36.124Z,249.02
2023-06-30T03:47:36.175Z,247.81
2023-06-30T03:48:36.154Z,249.56
2023-06-30T03:49:36.189Z,246.41
2023-06-30T03:50:36.191Z,247.12
2023-06-30T03:51:36.251Z,246.96
2023-06-30T03:52:36.244Z,247.38
2023-06-30T03:53:36.317Z,246.80
2023-06-30T03:54:36.354Z,244.86
2023-06-30T03:55:36.377Z,246.78
2023-06-30T03:56:36.416Z,246.97
2023-06-30T03:57:36.449Z,246.49
2023-06-30T03:58:36.465Z,248.21
2023-06-30T03:59:36.514Z,247.14
2023-06-30T04:00:36.529Z,247.56
2023-06-30T04:01:36.540Z,246.96
2023-06-30T04:02:36.611Z,246.92
2023-06-30T04:03:36.711Z,247.00
2023-06-30T04:04:36.794Z,247.94
2023-06-30T04:05:36.752Z,248.24
2023-06-30T04:06:36.792Z,248.76
2023-06-30T04:07:37.030Z,245.99
2023-06-30T04:08:36.945Z,249.09
2023-06-30T04:09:37.004Z,246.75
2023-06-30T04:10:37.060Z,243.86
2023-06-30T04:11:37.099Z,243.94
2023-06-30T04:12:37.175Z,243.73
2023-06-30T04:13:37.286Z,245.01
2023-06-30T04:14:37.321Z,243.98
2023-06-30T04:15:37.368Z,242.61
2023-06-30T04:16:37.430Z,244.10
2023-06-30T04:17:37.495Z,245.76
2023-06-30T04:18:37.567Z,245.70
2023-06-30T04:19:37.598Z,244.52
2023-06-30T04:20:37.690Z,246.20
2023-06-30T04:21:37.704Z,246.23
2023-06-30T04:22:37.796Z,245.62
2023-06-30T04:23:37.824Z,245.63
2023-06-30T04:24:37.934Z,245.78
2023-06-30T04:25:37.981Z,244.83
2023-06-30T04:26:38.103Z,243.59
2023-06-30T04:27:38.121Z,245.21
2023-06-30T04:28:38.218Z,243.83
2023-06-30T04:29:38.209Z,245.66
2023-06-30T04:30:38.682Z,245.29
2023-06-30T04:31:38.399Z,244.39
2023-06-30T04:32:38.463Z,243.88
2023-06-30T04:33:38.445Z,243.31
2023-06-30T04:34:38.513Z,246.03
2023-06-30T04:35:38.609Z,242.94
2023-06-30T04:36:38.652Z,244.41
2023-06-30T04:37:38.722Z,244.46
2023-06-30T04:38:38.861Z,244.04
2023-06-30T04:39:38.834Z,243.33
2023-06-30T04:40:38.871Z,247.59
2023-06-30T04:41:38.975Z,246.33
2023-06-30T04:42:39.069Z,247.54
2023-06-30T04:43:39.063Z,245.60
2023-06-30T04:44:39.164Z,244.77
2023-06-30T04:45:39.174Z,245.85
2023-06-30T04:46:39.326Z,246.78
2023-06-30T04:47:39.379Z,248.12
2023-06-30T04:48:39.386Z,246.89
2023-06-30T04:49:39.402Z,247.57
2023-06-30T04:50:39.488Z,245.77
2023-06-30T04:51:39.553Z,246.33
2023-06-30T04:52:39.639Z,244.79
2023-06-30T04:53:39.679Z,246.44
2023-06-30T04:54:39.721Z,245.86
2023-06-30T04:55:39.803Z,245.85
2023-06-30T04:56:39.844Z,247.78
2023-06-30T04:57:39.902Z,247.72
2023-06-30T04:58:39.963Z,245.69
2023-06-30T04:59:40.067Z,242.65
2023-06-30T05:00:40.126Z,242.92
2023-06-30T05:01:40.177Z,247.42
2023-06-30T05:02:40.214Z,247.33
2023-06-30T05:03:40.260Z,246.87
2023-06-30T05:04:40.313Z,244.75
2023-06-30T05:05:40.413Z,245.89
2023-06-30T05:06:40.390Z,244.57
2023-06-30T05:07:40.525Z,246.75
2023-06-30T05:08:40.459Z,247.41
2023-06-30T05:09:40.547Z,249.47
2023-06-30T05:10:40.583Z,247.44
2023-06-30T05:11:40.653Z,247.80
2023-06-30T05:12:40.601Z,247.59
2023-06-30T05:13:40.616Z,246.74
2023-06-30T05:14:40.624Z,249.23
2023-06-30T05:15:40.718Z,249.07
2023-06-30T05:16:40.722Z,248.90
2023-06-30T05:17:40.812Z,249.62
2023-06-30T05:18:40.754Z,248.04
2023-06-30T05:19:40.774Z,248.59
2023-06-30T05:20:40.829Z,248.64
2023-06-30T05:21:40.868Z,248.55
2023-06-30T05:22:40.898Z,247.86
2023-06-30T05:23:40.952Z,247.84
2023-06-30T05:24:40.965Z,246.70
2023-06-30T05:25:41.002Z,246.74
2023-06-30T05:26:41.112Z,248.85
2023-06-30T05:27:41.056Z,246.70
2023-06-30T05:28:43.166Z,246.11
2023-06-30T05:29:42.129Z,246.23
2023-06-30T05:30:41.122Z,246.60
2023-06-30T05:31:41.152Z,246.42
2023-06-30T05:32:41.188Z,246.36
2023-06-30T05:33:41.095Z,248.75
2023-06-30T05:34:41.081Z,249.37
2023-06-30T05:35:41.053Z,246.87
2023-06-30T05:36:41.080Z,246.06
2023-06-30T05:37:41.117Z,245.39
2023-06-30T05:38:41.163Z,243.90
2023-06-30T05:39:41.199Z,243.51
2023-06-30T05:40:41.284Z,244.95
2023-06-30T05:41:41.321Z,245.48
2023-06-30T05:42:41.349Z,247.54
2023-06-30T05:43:41.427Z,244.42
2023-06-30T05:44:41.507Z,245.91
2023-06-30T05:45:41.573Z,245.72
2023-06-30T05:46:41.612Z,244.97
2023-06-30T05:47:41.692Z,244.11
2023-06-30T05:48:41.645Z,247.46
2023-06-30T05:49:41.713Z,249.71
2023-06-30T05:50:42.505Z,249.76
2023-06-30T05:51:41.873Z,248.83
2023-06-30T05:52:41.835Z,249.41
2023-06-30T05:53:41.884Z,250.00
2023-06-30T05:54:41.907Z,249.52
2023-06-30T05:55:42.028Z,249.23
2023-06-30T05:56:41.920Z,250.00
2023-06-30T05:57:41.950Z,250.00
2023-06-30T05:58:41.969Z,248.84
2023-06-30T05:59:41.947Z,250.83
2023-06-30T06:00:41.928Z,248.60
2023-06-30T06:01:41.977Z,246.35
2023-06-30T06:02:42.058Z,247.47
2023-06-30T06:03:42.153Z,248.97
2023-06-30T06:04:42.135Z,249.51
2023-06-30T06:05:42.061Z,249.70
2023-06-30T06:06:42.022Z,249.62
2023-06-30T06:07:42.082Z,239.84
2023-06-30T06:08:42.053Z,244.68
2023-06-30T06:09:42.053Z,236.91
2023-06-30T06:10:42.149Z,227.82
2023-06-30T06:11:42.156Z,233.40
2023-06-30T06:12:42.192Z,230.00
2023-06-30T06:13:42.281Z,234.83
2023-06-30T06:14:42.302Z,228.10
2023-06-30T06:15:42.484Z,224.74
2023-06-30T06:16:42.365Z,220.93
2023-06-30T06:17:42.405Z,222.63
2023-06-30T06:18:42.364Z,227.68
2023-06-30T06:19:42.370Z,223.80
2023-06-30T06:20:42.411Z,220.12
2023-06-30T06:21:42.422Z,220.70
2023-06-30T06:22:42.439Z,224.21
2023-06-30T06:23:42.492Z,220.59
2023-06-30T06:24:42.502Z,224.47
2023-06-30T06:25:43.257Z,229.62
2023-06-30T06:26:42.491Z,232.10
2023-06-30T06:27:42.546Z,227.61
2023-06-30T06:28:42.515Z,223.23
2023-06-30T06:29:42.486Z,226.53
2023-06-30T06:30:42.559Z,235.32
2023-06-30T06:31:42.509Z,240.22
2023-06-30T06:32:42.545Z,234.71
2023-06-30T06:33:42.513Z,230.76
2023-06-30T06:34:42.492Z,227.71
2023-06-30T06:35:42.817Z,231.67
2023-06-30T06:36:42.451Z,235.15
2023-06-30T06:37:42.484Z,238.55
2023-06-30T06:38:42.449Z,237.67
2023-06-30T06:39:42.438Z,241.63
2023-06-30T06:40:42.457Z,236.27
2023-06-30T06:41:42.418Z,234.09
2023-06-30T06:42:42.445Z,233.71
2023-06-30T06:43:42.448Z,242.39
2023-06-30T06:44:42.401Z,239.41
2023-06-30T06:45:42.688Z,238.11
2023-06-30T06:46:42.426Z,234.94
2023-06-30T06:47:42.444Z,239.85
2023-06-30T06:48:42.498Z,230.53
2023-06-30T06:49:42.751Z,232.68
2023-06-30T06:50:42.380Z,239.44
2023-06-30T06:51:42.369Z,248.08
2023-06-30T06:52:42.373Z,248.86
2023-06-30T06:53:42.358Z,250.09
2023-06-30T06:54:42.315Z,250.00
2023-06-30T06:55:42.537Z,248.42
2023-06-30T06:56:42.359Z,249.89
2023-06-30T06:57:42.311Z,248.87
2023-06-30T06:58:42.316Z,248.73
2023-06-30T06:59:42.299Z,249.03
2023-06-30T07:00:42.312Z,248.15
2023-06-30T07:01:42.335Z,247.07
2023-06-30T07:02:42.338Z,246.03
2023-06-30T07:03:42.387Z,245.97
2023-06-30T07:04:42.259Z,244.41
2023-06-30T07:05:42.520Z,243.95
2023-06-30T07:06:42.219Z,244.65
2023-06-30T07:07:42.317Z,243.00
2023-06-30T07:08:42.240Z,241.57
2023-06-30T07:09:42.236Z,241.45
2023-06-30T07:10:42.232Z,241.15
2023-06-30T07:11:42.212Z,240.40
2023-06-30T07:12:42.187Z,240.28
2023-06-30T07:13:42.207Z,235.15
2023-06-30T07:14:43.095Z,235.90
2023-06-30T07:15:42.570Z,234.32
2023-06-30T07:16:42.469Z,236.90
2023-06-30T07:17:42.485Z,238.25
2023-06-30T07:18:42.589Z,240.19
2023-06-30T07:19:42.517Z,238.07
2023-06-30T07:20:42.574Z,233.72
2023-06-30T07:21:42.569Z,236.01
2023-06-30T07:22:42.575Z,237.74
2023-06-30T07:23:42.626Z,238.15
2023-06-30T07:24:44.081Z,237.66
2023-06-30T07:25:42.855Z,236.98
2023-06-30T07:26:42.740Z,235.22
2023-06-30T07:27:42.701Z,236.42
2023-06-30T07:28:42.771Z,236.27
2023-06-30T07:29:42.777Z,235.49
2023-06-30T07:30:42.746Z,237.09
2023-06-30T07:31:42.832Z,236.96
2023-06-30T07:32:42.854Z,237.19
2023-06-30T07:33:42.821Z,236.53
2023-06-30T07:34:42.864Z,236.68
2023-06-30T07:35:42.994Z,235.33
2023-06-30T07:36:42.856Z,235.02
2023-06-30T07:37:42.896Z,234.54
2023-06-30T07:38:43.696Z,235.31
2023-06-30T07:39:42.919Z,235.74
2023-06-30T07:41:42.977Z,236.65
2023-06-30T07:42:42.885Z,236.20
2023-06-30T07:43:42.890Z,237.47
2023-06-30T07:44:42.885Z,236.93
2023-06-30T07:45:43.123Z,236.56
2023-06-30T07:46:42.894Z,236.28
2023-06-30T07:47:42.921Z,236.39
2023-06-30T07:48:42.946Z,235.55
2023-06-30T07:49:42.847Z,239.16
2023-06-30T07:50:54.683Z,245.92
2023-06-30T07:51:43.813Z,246.30
2023-06-30T07:52:43.990Z,248.19
2023-06-30T07:53:43.733Z,251.44
2023-06-30T07:54:42.840Z,249.07
2023-06-30T07:55:43.151Z,229.99
2023-06-30T07:56:42.792Z,234.15
2023-06-30T07:57:42.868Z,232.84
2023-06-30T07:58:42.790Z,234.72
2023-06-30T07:59:42.799Z,238.40
2023-06-30T08:00:42.801Z,249.00
2023-06-30T08:01:42.789Z,235.77
2023-06-30T08:02:42.833Z,230.68
2023-06-30T08:03:42.955Z,238.97
2023-06-30T08:04:42.952Z,248.20
2023-06-30T08:05:43.235Z,238.82
2023-06-30T08:06:42.733Z,243.56
2023-06-30T08:07:48.982Z,241.69
2023-06-30T08:08:43.714Z,241.97
2023-06-30T08:09:42.697Z,242.91
2023-06-30T08:10:44.709Z,245.83
2023-06-30T08:11:42.718Z,248.32
2023-06-30T08:12:42.722Z,235.13
2023-06-30T08:13:42.697Z,229.84
2023-06-30T08:14:42.736Z,229.69
2023-06-30T08:15:44.677Z,217.75
2023-06-30T08:16:42.775Z,224.47
2023-06-30T08:17:54.506Z,233.10
2023-06-30T08:18:51.327Z,233.33
2023-06-30T08:19:47.695Z,233.49
2023-06-30T08:20:43.749Z,233.60
2023-06-30T08:21:42.762Z,235.17
2023-06-30T08:22:43.664Z,234.11
2023-06-30T08:23:42.814Z,221.41
2023-06-30T08:24:42.742Z,228.21
2023-06-30T08:25:43.033Z,198.68
2023-06-30T08:26:42.739Z,197.74
2023-06-30T08:27:42.773Z,190.59
2023-06-30T08:28:42.684Z,181.56
2023-06-30T08:29:42.739Z,201.64
2023-06-30T08:30:42.836Z,194.28
2023-06-30T08:31:42.826Z,189.47
2023-06-30T08:32:42.883Z,185.90
2023-06-30T08:33:43.009Z,192.03
2023-06-30T08:34:42.944Z,187.06
2023-06-30T08:35:43.131Z,177.16
2023-06-30T08:36:43.005Z,162.95
2023-06-30T08:37:43.014Z,154.87
2023-06-30T08:38:43.078Z,165.23
2023-06-30T08:39:43.085Z,176.59
2023-06-30T08:40:43.116Z,172.55
2023-06-30T08:41:43.139Z,162.59
2023-06-30T08:42:43.203Z,181.20
2023-06-30T08:43:43.165Z,201.53
2023-06-30T08:44:43.169Z,215.78
2023-06-30T08:45:43.526Z,224.89
2023-06-30T08:46:43.278Z,234.70
2023-06-30T08:47:43.611Z,241.07
2023-06-30T08:48:43.382Z,247.57
2023-06-30T08:49:43.451Z,250.46
2023-06-30T08:50:43.453Z,250.20
2023-06-30T08:51:43.472Z,250.09
2023-06-30T08:52:43.491Z,249.95
2023-06-30T08:53:43.520Z,249.93
2023-06-30T08:54:43.557Z,249.79
2023-06-30T08:55:43.782Z,249.91
2023-06-30T08:56:43.597Z,249.57
2023-06-30T08:57:43.613Z,250.00
2023-06-30T08:58:43.614Z,249.34
2023-06-30T08:59:44.612Z,249.50
2023-06-30T09:00:43.640Z,249.58
2023-06-30T09:01:45.554Z,247.61
2023-06-30T09:02:43.604Z,245.92
2023-06-30T09:03:43.688Z,247.93
2023-06-30T09:04:43.581Z,247.82
2023-06-30T09:05:43.786Z,248.07
2023-06-30T09:06:43.535Z,247.52
2023-06-30T09:07:43.669Z,247.29
2023-06-30T09:08:43.536Z,244.61
2023-06-30T09:09:43.544Z,245.02
2023-06-30T09:10:43.549Z,247.31
2023-06-30T09:11:43.514Z,249.81
2023-06-30T09:12:43.517Z,249.98
2023-06-30T09:13:43.543Z,245.06
2023-06-30T09:14:43.476Z,245.56
2023-06-30T09:15:43.850Z,241.86
2023-06-30T09:16:43.523Z,238.22
2023-06-30T09:17:43.508Z,247.06
2023-06-30T09:18:43.477Z,247.38
2023-06-30T09:19:43.472Z,243.04
2023-06-30T09:20:43.458Z,238.95
2023-06-30T09:21:43.467Z,239.42
2023-06-30T09:22:55.100Z,236.68
2023-06-30T09:23:44.459Z,236.85
2023-06-30T09:24:43.433Z,238.02
2023-06-30T09:25:43.705Z,238.73
2023-06-30T09:26:43.394Z,239.35
2023-06-30T09:27:43.399Z,240.95
2023-06-30T09:28:44.409Z,238.33
2023-06-30T09:29:43.396Z,237.49
2023-06-30T09:30:43.428Z,236.40
2023-06-30T09:31:43.413Z,236.51
2023-06-30T09:32:43.457Z,236.06
2023-06-30T09:33:43.407Z,235.62
2023-06-30T09:34:43.348Z,235.48
2023-06-30T09:35:43.632Z,236.44
2023-06-30T09:36:43.377Z,234.18
2023-06-30T09:37:43.391Z,232.67
2023-06-30T09:38:43.350Z,230.36
2023-06-30T09:39:43.307Z,227.77
2023-06-30T09:40:43.757Z,227.15
2023-06-30T09:41:43.302Z,226.67
2023-06-30T09:42:44.212Z,225.93
2023-06-30T09:43:43.314Z,226.63
2023-06-30T09:44:43.316Z,226.87
2023-06-30T09:45:43.822Z,226.10
2023-06-30T09:46:43.376Z,225.64
2023-06-30T09:47:43.293Z,222.33
2023-06-30T09:48:43.304Z,221.69
2023-06-30T09:49:43.309Z,224.96
2023-06-30T09:50:43.316Z,226.97
2023-06-30T09:51:43.321Z,229.19
2023-06-30T09:52:43.322Z,231.15
2023-06-30T09:53:43.353Z,233.00
2023-06-30T09:54:45.215Z,230.99
2023-06-30T09:55:43.522Z,235.62
2023-06-30T09:56:43.300Z,241.32
2023-06-30T09:57:43.311Z,240.83
2023-06-30T09:58:43.316Z,240.72
2023-06-30T09:59:43.330Z,243.82
2023-06-30T10:00:43.783Z,246.77
2023-06-30T10:01:43.383Z,247.05
2023-06-30T10:02:43.434Z,228.58
2023-06-30T10:03:43.404Z,215.48
2023-06-30T10:04:43.363Z,211.88
2023-06-30T10:05:44.074Z,211.69
2023-06-30T10:06:43.412Z,211.25
2023-06-30T10:07:43.469Z,214.21
2023-06-30T10:08:43.390Z,211.67
2023-06-30T10:09:43.392Z,216.52
2023-06-30T10:10:43.793Z,218.14
2023-06-30T10:11:43.429Z,213.91
2023-06-30T10:12:44.329Z,211.34
2023-06-30T10:13:43.414Z,205.12
2023-06-30T10:14:43.436Z,202.06
2023-06-30T10:15:43.982Z,204.25
2023-06-30T10:16:43.494Z,211.39
2023-06-30T10:17:43.634Z,214.95
2023-06-30T10:18:43.524Z,215.77
2023-06-30T10:19:43.525Z,213.60
2023-06-30T10:20:49.168Z,213.42
2023-06-30T10:21:44.544Z,213.44
2023-06-30T10:22:43.534Z,208.57
2023-06-30T10:23:43.496Z,202.75
2023-06-30T10:24:43.453Z,201.85
2023-06-30T10:25:43.628Z,198.01
2023-06-30T10:26:43.519Z,199.48
2023-06-30T10:27:43.470Z,199.87
2023-06-30T10:28:43.460Z,193.35
2023-06-30T10:29:43.486Z,188.76
2023-06-30T10:30:43.750Z,190.46
2023-06-30T10:31:43.515Z,191.43
2023-06-30T10:32:43.513Z,190.45
2023-06-30T10:33:43.471Z,192.92
2023-06-30T10:34:43.425Z,194.32
2023-06-30T10:35:44.168Z,189.84
2023-06-30T10:36:43.418Z,192.28
2023-06-30T10:37:43.420Z,189.13
2023-06-30T10:38:43.434Z,188.24
2023-06-30T10:39:43.457Z,188.76
2023-06-30T10:40:43.815Z,185.89
2023-06-30T10:41:43.570Z,184.24
2023-06-30T10:42:43.620Z,186.61
2023-06-30T10:43:43.787Z,189.54
2023-06-30T10:44:43.745Z,187.80
2023-06-30T10:45:44.012Z,183.18
2023-06-30T10:46:43.959Z,192.48
2023-06-30T10:47:43.873Z,202.71
2023-06-30T10:48:43.855Z,208.15
2023-06-30T10:49:43.885Z,209.72
2023-06-30T10:50:43.908Z,212.22
2023-06-30T10:51:43.904Z,216.93
2023-06-30T10:52:43.925Z,224.31
2023-06-30T10:53:43.919Z,223.42
2023-06-30T10:54:43.947Z,223.78
2023-06-30T10:55:43.951Z,225.52
2023-06-30T10:56:43.907Z,230.10
2023-06-30T10:57:43.919Z,228.37
2023-06-30T10:58:43.999Z,236.21
2023-06-30T10:59:44.005Z,239.03
2023-06-30T11:00:43.999Z,239.55
2023-06-30T11:01:44.038Z,241.91
2023-06-30T11:02:44.122Z,232.44
2023-06-30T11:03:44.164Z,241.88
2023-06-30T11:04:44.307Z,241.10
2023-06-30T11:05:44.553Z,240.82
2023-06-30T11:06:44.290Z,247.28
2023-06-30T11:07:44.287Z,244.40
2023-06-30T11:08:44.368Z,242.57
2023-06-30T11:09:44.405Z,245.39
2023-06-30T11:10:44.540Z,248.68
2023-06-30T11:11:44.552Z,239.37
2023-06-30T11:12:44.594Z,249.49
2023-06-30T11:13:44.669Z,247.15
2023-06-30T11:14:44.777Z,243.44
2023-06-30T11:15:45.395Z,236.43
2023-06-30T11:16:44.868Z,239.50
2023-06-30T11:17:44.953Z,245.87
2023-06-30T11:18:45.060Z,243.98
2023-06-30T11:19:45.008Z,244.48
2023-06-30T11:20:45.052Z,243.13
2023-06-30T11:21:45.115Z,242.53
2023-06-30T11:22:45.176Z,244.33
2023-06-30T11:23:45.189Z,250.12
2023-06-30T11:24:45.233Z,245.56
2023-06-30T11:25:45.306Z,241.73
2023-06-30T11:26:45.419Z,250.00
2023-06-30T11:27:45.382Z,245.75
2023-06-30T11:28:45.425Z,250.55
2023-06-30T11:29:45.510Z,238.17
2023-06-30T11:30:45.560Z,229.41
2023-06-30T11:31:45.568Z,232.51
2023-06-30T11:32:45.650Z,240.02
2023-06-30T11:33:45.664Z,249.31
2023-06-30T11:34:45.715Z,249.69
2023-06-30T11:35:45.969Z,245.90
2023-06-30T11:36:45.747Z,245.17
2023-06-30T11:37:45.802Z,235.75
2023-06-30T11:38:45.839Z,239.53
2023-06-30T11:39:45.885Z,244.23
2023-06-30T11:40:45.918Z,247.22
2023-06-30T11:41:45.992Z,241.86
2023-06-30T11:42:46.032Z,236.64
2023-06-30T11:43:46.038Z,243.41
2023-06-30T11:44:46.075Z,242.28
2023-06-30T11:45:46.292Z,240.23
2023-06-30T11:46:46.248Z,225.75
2023-06-30T11:47:46.396Z,221.33
2023-06-30T11:48:46.288Z,219.82
2023-06-30T11:49:46.368Z,225.17
2023-06-30T11:50:46.687Z,224.61
2023-06-30T11:51:46.493Z,228.47
2023-06-30T11:52:46.550Z,226.84
2023-06-30T11:53:46.596Z,206.37
2023-06-30T11:54:46.693Z,215.95
2023-06-30T11:55:46.843Z,217.28
2023-06-30T11:56:46.781Z,213.83
2023-06-30T11:57:46.866Z,204.33
2023-06-30T11:58:46.869Z,203.34
2023-06-30T11:59:46.919Z,192.66
2023-06-30T12:00:47.224Z,198.46
2023-06-30T12:01:46.979Z,208.14
2023-06-30T12:02:48.719Z,203.29
2023-06-30T12:03:47.202Z,189.94
2023-06-30T12:04:47.113Z,190.81
2023-06-30T12:05:47.182Z,186.76
2023-06-30T12:06:47.039Z,189.68
2023-06-30T12:07:47.019Z,186.22
2023-06-30T12:08:47.008Z,186.23
2023-06-30T12:09:46.985Z,178.78
2023-06-30T12:10:47.120Z,179.46
2023-06-30T12:11:47.000Z,181.67
2023-06-30T12:12:46.963Z,171.96
2023-06-30T12:13:46.987Z,175.29
2023-06-30T12:14:46.982Z,175.63
2023-06-30T12:15:47.960Z,174.65
2023-06-30T12:16:46.982Z,172.07
2023-06-30T12:17:46.995Z,174.39
2023-06-30T12:18:46.951Z,167.62
2023-06-30T12:19:46.919Z,174.04
2023-06-30T12:20:46.922Z,167.28
2023-06-30T12:21:46.946Z,163.01
2023-06-30T12:22:46.917Z,160.23
2023-06-30T12:23:46.906Z,166.44
2023-06-30T12:24:46.931Z,168.18
2023-06-30T12:25:47.202Z,160.93
2023-06-30T12:26:46.949Z,153.67
2023-06-30T12:27:46.887Z,149.46
2023-06-30T12:28:46.913Z,156.55
2023-06-30T12:29:46.868Z,154.17